Time;durP1;ratioP1;P1;durP2;ratioP2;P2;SDS_P1;SDS_P2;PMS_P1;PMS_P2;Temp;Humidity;BMP_temperature;BMP_pressure;BME280_temperature;BME280_humidity;BME280_pressure;Samples;Min_cycle;Max_cycle;Signal;HPM_P1;HPM_P2
2023/06/10 00:01:49;;;;;;;8.48;5.40;;;18.30;99.90;;;;;;5054281;28;20029;-58
2023/06/10 00:04:16;;;;;;;7.07;4.90;;;18.20;99.90;;;;;;5054205;28;20123;-57
2023/06/10 00:06:43;;;;;;;10.05;5.50;;;18.20;99.90;;;;;;5036263;28;20040;-57
2023/06/10 00:09:13;;;;;;;10.65;5.72;;;18.10;99.90;;;;;;5036399;28;20041;-57
2023/06/10 00:11:40;;;;;;;10.40;5.90;;;18.10;99.90;;;;;;5069792;28;20044;-57
2023/06/10 00:14:06;;;;;;;9.82;5.03;;;18.10;99.90;;;;;;5073891;28;20032;-57
2023/06/10 00:16:32;;;;;;;14.98;5.90;;;18.00;99.90;;;;;;5074053;28;20056;-57
2023/06/10 00:19:03;;;;;;;9.15;5.00;;;18.00;99.90;;;;;;5073109;28;20040;-57
2023/06/10 00:21:30;;;;;;;7.55;4.82;;;18.00;99.90;;;;;;5061668;28;20031;-57
2023/06/10 00:23:56;;;;;;;9.05;5.70;;;18.00;99.90;;;;;;5074063;28;20505;-57
2023/06/10 00:26:23;;;;;;;6.88;5.22;;;17.90;99.90;;;;;;5066791;28;20406;-57
2023/06/10 00:28:49;;;;;;;8.50;4.78;;;17.90;99.90;;;;;;5073405;28;20144;-57
2023/06/10 00:31:15;;;;;;;8.60;5.22;;;17.90;99.90;;;;;;5055998;28;20395;-57
2023/06/10 00:33:41;;;;;;;9.75;4.90;;;17.80;99.90;;;;;;5073761;28;20044;-57
2023/06/10 00:36:07;;;;;;;8.55;4.95;;;17.80;99.90;;;;;;5073556;28;20367;-57
2023/06/10 00:38:33;;;;;;;8.75;5.00;;;17.80;99.90;;;;;;5073692;28;20072;-57
2023/06/10 00:40:58;;;;;;;8.38;5.13;;;17.80;99.90;;;;;;5073756;28;20036;-57
2023/06/10 00:43:24;;;;;;;7.65;4.70;;;17.80;99.90;;;;;;5073365;28;20503;-57
2023/06/10 00:45:51;;;;;;;7.88;5.20;;;17.70;99.90;;;;;;5053873;28;20044;-57
2023/06/10 00:48:17;;;;;;;12.13;5.53;;;17.70;99.90;;;;;;5053544;28;20037;-57
2023/06/10 00:50:43;;;;;;;8.13;4.50;;;17.70;99.90;;;;;;5053633;28;20045;-57
2023/06/10 00:53:10;;;;;;;9.68;4.68;;;17.60;99.90;;;;;;5053198;28;20037;-57
2023/06/10 00:55:36;;;;;;;6.57;4.78;;;17.60;99.90;;;;;;5053397;28;20037;-57
2023/06/10 00:58:03;;;;;;;7.88;4.75;;;17.60;99.90;;;;;;5053027;28;20048;-57
2023/06/10 01:00:29;;;;;;;8.10;4.85;;;17.60;99.90;;;;;;5053036;28;20041;-57
2023/06/10 01:02:55;;;;;;;11.48;4.70;;;17.50;99.90;;;;;;5053484;28;20063;-57
2023/06/10 01:05:21;;;;;;;9.43;4.63;;;17.50;99.90;;;;;;5035188;28;20609;-57
2023/06/10 01:07:56;;;;;;;9.07;4.50;;;17.40;99.90;;;;;;5034874;28;20079;-57
2023/06/10 01:10:35;;;;;;;8.50;4.90;;;17.40;99.90;;;;;;5035082;28;20072;-57
2023/06/10 01:13:03;;;;;;;10.18;4.63;;;17.40;99.90;;;;;;5052966;28;20097;-57
2023/06/10 01:15:31;;;;;;;7.80;4.75;;;17.30;99.90;;;;;;5053019;28;20033;-57
2023/06/10 01:18:14;;;;;;;6.47;4.23;;;17.30;99.90;;;;;;5053404;28;20094;-57
2023/06/10 01:20:42;;;;;;;8.30;4.63;;;17.20;99.90;;;;;;5053002;28;20272;-57
2023/06/10 01:23:10;;;;;;;8.73;4.47;;;17.20;99.90;;;;;;5048861;28;20056;-57
2023/06/10 01:25:42;;;;;;;6.35;4.65;;;17.10;99.90;;;;;;5052615;28;20551;-57
2023/06/10 01:28:27;;;;;;;6.65;4.75;;;17.10;99.90;;;;;;5034738;28;20041;-57
2023/06/10 01:31:03;;;;;;;7.80;4.25;;;17.00;99.90;;;;;;5041080;28;20106;-57
2023/06/10 01:33:33;;;;;;;8.60;4.68;;;17.00;99.90;;;;;;5052381;28;20045;-57
2023/06/10 01:36:01;;;;;;;6.43;4.18;;;17.00;99.90;;;;;;5034856;28;20052;-57
2023/06/10 01:38:29;;;;;;;5.70;3.60;;;16.90;99.90;;;;;;5051712;28;20048;-57
2023/06/10 01:40:55;;;;;;;;;;;16.90;99.90;;;;;;5035042;28;20039;-57
2023/06/10 01:43:21;;;;;;;6.95;4.18;;;16.80;99.90;;;;;;5052359;28;20293;-57
2023/06/10 01:45:47;;;;;;;11.10;4.57;;;16.80;99.90;;;;;;5052482;28;20047;-57
2023/06/10 01:48:12;;;;;;;6.28;4.55;;;16.80;99.90;;;;;;5033972;28;20541;-57
2023/06/10 01:50:38;;;;;;;8.93;4.50;;;16.70;99.90;;;;;;5052554;28;20398;-57
2023/06/10 01:53:05;;;;;;;8.73;4.28;;;16.70;99.90;;;;;;5051869;28;20115;-57
2023/06/10 01:55:31;;;;;;;11.82;4.97;;;16.60;99.90;;;;;;5052017;28;20499;-57
2023/06/10 01:57:57;;;;;;;7.68;4.20;;;16.60;99.90;;;;;;5052087;28;20037;-57
2023/06/10 02:00:22;;;;;;;6.78;3.78;;;16.50;99.90;;;;;;5061621;28;20462;-57
2023/06/10 02:02:48;;;;;;;8.95;4.07;;;16.50;99.90;;;;;;5056793;28;20446;-57
2023/06/10 02:05:13;;;;;;;14.02;4.55;;;16.50;99.90;;;;;;5034131;28;20192;-57
2023/06/10 02:07:39;;;;;;;8.10;3.90;;;16.40;99.90;;;;;;5052130;28;20037;-57
2023/06/10 02:10:06;;;;;;;10.50;4.80;;;16.40;99.90;;;;;;5053048;28;20041;-57
2023/06/10 02:12:32;;;;;;;9.32;4.90;;;16.30;99.90;;;;;;5072376;28;20032;-57
2023/06/10 02:14:57;;;;;;;7.80;4.45;;;16.30;99.90;;;;;;5072152;28;20090;-57
2023/06/10 02:17:23;;;;;;;7.95;4.57;;;16.20;99.90;;;;;;5071700;28;20390;-57
2023/06/10 02:19:52;;;;;;;10.40;4.65;;;16.10;99.90;;;;;;5053878;28;20051;-57
2023/06/10 02:22:22;;;;;;;6.60;4.40;;;16.10;99.90;;;;;;5072133;28;20108;-57
2023/06/10 02:24:48;;;;;;;7.47;4.70;;;16.00;99.90;;;;;;5071805;28;20044;-57
2023/06/10 02:27:15;;;;;;;8.68;4.20;;;16.10;99.90;;;;;;5071718;28;20036;-57
2023/06/10 02:29:41;;;;;;;8.55;4.40;;;16.00;99.90;;;;;;5071411;28;20045;-57
2023/06/10 02:32:07;;;;;;;9.30;4.60;;;15.90;99.90;;;;;;5071920;28;20036;-57
2023/06/10 02:34:33;;;;;;;9.45;5.05;;;15.90;99.90;;;;;;5071828;28;20037;-57
2023/06/10 02:36:59;;;;;;;7.57;4.47;;;15.90;99.90;;;;;;5071782;28;20048;-57
2023/06/10 02:39:25;;;;;;;8.13;4.65;;;15.80;99.90;;;;;;5054031;28;20037;-56
2023/06/10 02:41:51;;;;;;;7.85;4.43;;;15.80;99.90;;;;;;5067115;28;20134;-56
2023/06/10 02:44:18;;;;;;;11.63;4.20;;;15.80;99.90;;;;;;5062186;28;20170;-57
2023/06/10 02:46:44;;;;;;;7.38;4.15;;;15.80;99.90;;;;;;5060136;28;20475;-57
2023/06/10 02:49:10;;;;;;;9.50;4.50;;;15.70;99.90;;;;;;5051715;28;20037;-57
2023/06/10 02:51:36;;;;;;;7.20;4.03;;;15.80;99.90;;;;;;5055177;28;20483;-57
2023/06/10 02:54:02;;;;;;;7.93;4.20;;;15.70;99.90;;;;;;5069319;28;20094;-57
2023/06/10 02:56:28;;;;;;;9.63;4.28;;;15.70;99.90;;;;;;5055241;28;20045;-57
2023/06/10 02:58:53;;;;;;;8.55;4.20;;;15.60;99.90;;;;;;5055371;28;20045;-57
2023/06/10 03:01:19;;;;;;;8.18;4.40;;;15.60;99.90;;;;;;5055793;28;20068;-57
2023/06/10 03:03:46;;;;;;;11.38;4.63;;;15.60;99.90;;;;;;5055375;28;20098;-56
2023/06/10 03:06:12;;;;;;;11.45;4.72;;;15.50;99.90;;;;;;5055530;28;20041;-57
2023/06/10 03:08:39;;;;;;;10.63;4.75;;;15.60;99.90;;;;;;5055310;28;20037;-57
2023/06/10 03:11:04;;;;;;;10.38;3.90;;;15.50;99.90;;;;;;5063947;28;20044;-56
2023/06/10 03:13:30;;;;;;;9.88;4.72;;;15.50;99.90;;;;;;5060451;28;20547;-56
2023/06/10 03:15:56;;;;;;;7.82;4.18;;;15.40;99.90;;;;;;5055290;28;20041;-57
2023/06/10 03:18:25;;;;;;;8.15;5.07;;;15.40;99.90;;;;;;5037338;28;20059;-57
2023/06/10 03:20:51;;;;;;;10.98;4.68;;;15.30;99.90;;;;;;5054995;28;20064;-57
2023/06/10 03:23:18;;;;;;;7.53;4.60;;;15.30;99.90;;;;;;5055361;28;20071;-57
2023/06/10 03:25:44;;;;;;;9.52;4.55;;;15.30;99.90;;;;;;5055200;28;20037;-56
2023/06/10 03:28:10;;;;;;;9.55;4.93;;;15.30;99.90;;;;;;5055186;28;20386;-57
2023/06/10 03:30:36;;;;;;;7.68;4.97;;;15.30;99.90;;;;;;5037177;28;20644;-56
2023/06/10 03:33:02;;;;;;;10.70;4.97;;;15.20;99.90;;;;;;5054821;28;20048;-57
2023/06/10 03:35:27;;;;;;;9.95;5.15;;;15.20;99.90;;;;;;5054808;28;20041;-57
2023/06/10 03:37:53;;;;;;;12.63;5.53;;;15.30;99.90;;;;;;5054853;28;20139;-57
2023/06/10 03:40:18;;;;;;;14.07;5.25;;;15.20;99.90;;;;;;5055107;28;20033;-57
2023/06/10 03:42:44;;;;;;;10.23;5.40;;;15.20;99.90;;;;;;5054744;28;20040;-57
2023/06/10 03:45:10;;;;;;;8.38;4.88;;;15.10;99.90;;;;;;5054808;28;20045;-56
2023/06/10 03:47:37;;;;;;;11.13;5.00;;;15.10;99.90;;;;;;5054527;28;20479;-57
2023/06/10 03:50:07;;;;;;;11.13;5.47;;;15.10;99.90;;;;;;5054911;28;20041;-57
2023/06/10 03:52:34;;;;;;;10.43;5.20;;;15.10;99.90;;;;;;5054711;28;20450;-57
2023/06/10 03:54:59;;;;;;;10.60;5.20;;;15.10;99.90;;;;;;5035972;28;20048;-56
2023/06/10 03:57:25;;;;;;;9.75;5.57;;;15.10;99.90;;;;;;5054400;28;20037;-57
2023/06/10 03:59:51;;;;;;;11.82;5.55;;;15.10;99.90;;;;;;5054627;28;20422;-57
2023/06/10 04:02:17;;;;;;;12.07;5.35;;;15.10;99.90;;;;;;5053435;28;20037;-57
2023/06/10 04:04:43;;;;;;;10.57;5.88;;;15.00;99.90;;;;;;5055152;28;20041;-57
2023/06/10 04:07:09;;;;;;;12.25;5.38;;;15.00;99.90;;;;;;5074463;28;20043;-57
2023/06/10 04:09:35;;;;;;;12.90;5.68;;;15.00;99.90;;;;;;5073914;28;20044;-56
2023/06/10 04:12:02;;;;;;;9.93;6.10;;;15.00;99.90;;;;;;5056184;28;20053;-56
2023/06/10 04:14:27;;;;;;;12.05;5.65;;;15.00;99.90;;;;;;5073904;28;20475;-57
2023/06/10 04:16:54;;;;;;;18.70;6.25;;;15.00;99.90;;;;;;5074048;28;20102;-56
2023/06/10 04:19:19;;;;;;;14.20;6.95;;;15.10;99.90;;;;;;5073938;28;20128;-57
2023/06/10 04:21:45;;;;;;;15.70;6.93;;;15.00;99.90;;;;;;5073978;28;20047;-56
2023/06/10 04:24:11;;;;;;;11.95;6.00;;;15.00;99.90;;;;;;5056130;28;20044;-56
2023/06/10 04:26:37;;;;;;;11.80;6.45;;;15.00;99.90;;;;;;5073943;28;20119;-56
2023/06/10 04:29:03;;;;;;;19.67;7.03;;;15.00;99.90;;;;;;5074113;28;20064;-56
2023/06/10 04:31:28;;;;;;;12.25;6.38;;;15.00;99.90;;;;;;5073605;28;20040;-56
2023/06/10 04:33:54;;;;;;;12.65;5.95;;;15.00;99.90;;;;;;5055845;28;20098;-57
2023/06/10 04:36:20;;;;;;;11.90;6.28;;;15.10;99.90;;;;;;5073378;28;20040;-56
2023/06/10 04:38:46;;;;;;;15.50;7.03;;;15.20;99.90;;;;;;5055600;28;20041;-57
2023/06/10 04:41:12;;;;;;;10.80;6.18;;;15.30;99.90;;;;;;5073523;28;20045;-57
2023/06/10 04:43:38;;;;;;;16.27;6.45;;;15.30;99.90;;;;;;5073549;28;20421;-57
2023/06/10 04:46:04;;;;;;;21.05;7.70;;;15.40;99.90;;;;;;5073273;28;20032;-57
2023/06/10 04:48:30;;;;;;;12.70;6.80;;;15.30;99.90;;;;;;5073561;28;20041;-57
2023/06/10 04:50:56;;;;;;;12.35;6.32;;;15.40;99.90;;;;;;5073477;28;20390;-56
2023/06/10 04:53:22;;;;;;;13.23;5.85;;;15.50;99.90;;;;;;5073615;28;20039;-56
2023/06/10 04:55:48;;;;;;;17.70;6.65;;;15.60;99.90;;;;;;5066259;28;20041;-57
2023/06/10 04:58:14;;;;;;;12.52;5.78;;;15.60;99.90;;;;;;5032777;28;20485;-57
2023/06/10 05:00:40;;;;;;;13.38;6.25;;;15.70;99.90;;;;;;5053430;28;20037;-56
2023/06/10 05:03:05;;;;;;;10.98;6.35;;;15.70;99.90;;;;;;5035123;28;20093;-57
2023/06/10 05:05:31;;;;;;;10.27;5.35;;;15.70;99.90;;;;;;5053352;28;20036;-56
2023/06/10 05:07:57;;;;;;;16.52;6.55;;;15.90;99.90;;;;;;5052914;28;20055;-57
2023/06/10 05:10:23;;;;;;;12.77;6.60;;;15.90;99.90;;;;;;5053302;28;20068;-57
2023/06/10 05:12:48;;;;;;;11.27;5.70;;;15.90;99.90;;;;;;5053252;28;20473;-56
2023/06/10 05:15:14;;;;;;;13.70;6.60;;;16.00;99.90;;;;;;5035340;28;20530;-57
2023/06/10 05:17:40;;;;;;;14.50;7.65;;;16.00;99.90;;;;;;5053000;28;20471;-57
2023/06/10 05:20:06;;;;;;;14.40;6.70;;;16.20;99.90;;;;;;5034749;28;20115;-56
2023/06/10 05:22:32;;;;;;;13.73;6.55;;;16.10;99.90;;;;;;5035094;28;20114;-56
2023/06/10 05:24:57;;;;;;;14.77;6.15;;;16.20;99.90;;;;;;5052857;28;20052;-57
2023/06/10 05:27:24;;;;;;;16.52;6.50;;;16.20;99.90;;;;;;5052628;28;20064;-57
2023/06/10 05:29:51;;;;;;;11.05;5.68;;;16.30;99.90;;;;;;5052448;28;20103;-57
2023/06/10 05:32:17;;;;;;;13.35;6.10;;;16.40;99.90;;;;;;5052563;28;20055;-57
2023/06/10 05:34:43;;;;;;;11.18;6.13;;;16.50;99.90;;;;;;5052747;28;20041;-57
2023/06/10 05:37:09;;;;;;;12.82;5.95;;;16.50;99.90;;;;;;5052377;28;20086;-57
2023/06/10 05:39:37;;;;;;;11.25;6.60;;;16.60;99.90;;;;;;5052324;28;20112;-56
2023/06/10 05:42:06;;;;;;;12.80;6.38;;;16.80;99.90;;;;;;5034650;28;20471;-57
2023/06/10 05:44:32;;;;;;;12.60;6.55;;;16.80;99.90;;;;;;5035437;28;20033;-57
2023/06/10 05:46:57;;;;;;;14.25;6.57;;;16.90;99.90;;;;;;5068119;28;20102;-57
2023/06/10 05:49:23;;;;;;;15.30;6.05;;;16.90;99.90;;;;;;5052152;28;20039;-57
2023/06/10 05:51:49;;;;;;;11.35;5.82;;;17.10;99.90;;;;;;5052570;28;20033;-56
2023/06/10 05:54:14;;;;;;;11.45;4.97;;;17.20;99.90;;;;;;5052366;28;20565;-57
2023/06/10 05:56:40;;;;;;;13.88;5.70;;;17.30;99.90;;;;;;5052454;28;20041;-56
2023/06/10 05:59:06;;;;;;;12.70;6.20;;;17.40;99.90;;;;;;5058388;28;20132;-57
2023/06/10 06:01:31;;;;;;;8.48;5.00;;;17.60;99.90;;;;;;5053953;28;20040;-57
2023/06/10 06:03:57;;;;;;;12.45;5.75;;;17.70;99.90;;;;;;5072097;28;20036;-57
2023/06/10 06:06:23;;;;;;;11.45;5.13;;;17.60;99.90;;;;;;5072015;28;20111;-57
2023/06/10 06:08:49;;;;;;;11.18;5.32;;;17.70;99.90;;;;;;5066164;28;20059;-57
2023/06/10 06:11:15;;;;;;;8.93;5.30;;;17.90;99.90;;;;;;5064649;28;20040;-57
2023/06/10 06:13:41;;;;;;;9.68;5.07;;;17.90;99.90;;;;;;5072002;28;20040;-56
2023/06/10 06:16:07;;;;;;;9.30;5.05;;;18.10;99.90;;;;;;5071935;28;20119;-57
2023/06/10 06:18:34;;;;;;;12.82;5.72;;;18.10;99.90;;;;;;5071632;28;20107;-56
2023/06/10 06:21:00;;;;;;;10.75;5.22;;;18.20;99.90;;;;;;5072146;28;20040;-57
2023/06/10 06:23:25;;;;;;;9.95;5.50;;;18.20;99.90;;;;;;5071785;28;20115;-57
2023/06/10 06:25:51;;;;;;;12.57;5.35;;;18.10;99.90;;;;;;5052908;28;20131;-57
2023/06/10 06:28:18;;;;;;;12.48;5.57;;;18.30;99.90;;;;;;5069167;28;20032;-57
2023/06/10 06:30:44;;;;;;;7.55;5.13;;;18.50;99.90;;;;;;5060856;28;20044;-57
2023/06/10 06:33:10;;;;;;;12.95;5.63;;;18.50;99.90;;;;;;5053774;28;20080;-57
2023/06/10 06:35:38;;;;;;;9.63;5.63;;;18.50;99.90;;;;;;5071736;28;20068;-57
2023/06/10 06:38:04;;;;;;;12.68;4.72;;;18.70;99.90;;;;;;5053669;28;20124;-57
2023/06/10 06:40:29;;;;;;;9.00;5.20;;;18.80;99.90;;;;;;5071871;28;20370;-57
2023/06/10 06:42:55;;;;;;;13.30;5.00;;;19.10;99.90;;;;;;5053592;28;20036;-57
2023/06/10 06:45:21;;;;;;;8.43;5.55;;;19.30;99.90;;;;;;5071774;28;20040;-57
2023/06/10 06:47:46;;;;;;;8.20;4.68;;;19.40;99.90;;;;;;5071719;28;20048;-57
2023/06/10 06:50:12;;;;;;;11.23;4.85;;;19.60;99.90;;;;;;5071406;28;20036;-57
2023/06/10 06:52:38;;;;;;;10.50;4.93;;;19.80;99.90;;;;;;5053392;28;20123;-57
2023/06/10 06:55:04;;;;;;;9.82;5.00;;;19.90;99.90;;;;;;5066189;28;20033;-57
2023/06/10 06:57:30;;;;;;;10.02;4.40;;;20.00;99.90;;;;;;5033766;28;20049;-58
2023/06/10 06:59:55;;;;;;;9.82;4.90;;;20.30;99.90;;;;;;5051413;28;20033;-57
2023/06/10 07:02:21;;;;;;;11.88;5.22;;;20.40;99.90;;;;;;5051770;28;20454;-57
2023/06/10 07:04:49;;;;;;;10.20;4.90;;;20.40;99.90;;;;;;5017133;28;20049;-57
2023/06/10 07:07:15;;;;;;;9.73;5.13;;;20.50;99.90;;;;;;5051972;28;20437;-57
2023/06/10 07:09:41;;;;;;;8.75;5.07;;;20.70;99.90;;;;;;5052095;28;20040;-57
2023/06/10 07:12:07;;;;;;;8.05;4.78;;;20.90;99.90;;;;;;5051446;28;20526;-57
2023/06/10 07:14:33;;;;;;;6.70;4.28;;;21.00;99.90;;;;;;5051241;28;20441;-58
2023/06/10 07:16:58;;;;;;;9.85;4.65;;;21.00;99.90;;;;;;5051234;28;20029;-58
2023/06/10 07:19:24;;;;;;;9.30;5.00;;;21.20;99.90;;;;;;5051688;28;20048;-57
2023/06/10 07:21:50;;;;;;;11.45;4.57;;;21.30;99.90;;;;;;5051535;28;20060;-57
2023/06/10 07:24:15;;;;;;;11.75;5.30;;;21.40;99.90;;;;;;5033671;28;20124;-57
2023/06/10 07:26:41;;;;;;;8.52;4.38;;;21.70;99.90;;;;;;5051667;28;20128;-58
2023/06/10 07:29:07;;;;;;;8.80;4.55;;;21.80;99.90;;;;;;5050796;28;20049;-58
2023/06/10 07:31:32;;;;;;;7.00;4.82;;;21.80;99.90;;;;;;5051514;28;20056;-58
2023/06/10 07:33:58;;;;;;;9.25;4.80;;;22.10;99.90;;;;;;5050987;28;20455;-58
2023/06/10 07:36:27;;;;;;;8.63;5.13;;;22.10;99.90;;;;;;5051365;28;20236;-58
2023/06/10 07:38:53;;;;;;;;;;;22.50;99.90;;;;;;5055024;28;20045;-58
2023/06/10 07:41:19;;;;;;;9.00;4.72;;;22.40;99.90;;;;;;5054697;28;19923;-58
2023/06/10 07:43:45;;;;;;;11.98;5.28;;;22.60;99.90;;;;;;5054584;28;20037;-58
2023/06/10 07:46:10;;;;;;;7.80;4.47;;;22.70;99.90;;;;;;5037086;28;20540;-58
2023/06/10 07:48:36;;;;;;;9.38;4.30;;;22.90;99.90;;;;;;5054563;28;20037;-57
2023/06/10 07:51:02;;;;;;;11.98;5.22;;;23.10;99.90;;;;;;5054830;28;20391;-58
2023/06/10 07:53:27;;;;;;;13.18;4.95;;;23.20;99.90;;;;;;5054866;28;20092;-58
2023/06/10 07:55:53;;;;;;;12.93;4.70;;;22.60;99.90;;;;;;5054710;28;20525;-59
2023/06/10 07:58:19;;;;;;;8.68;4.00;;;22.80;99.90;;;;;;5054189;28;20037;-58
2023/06/10 08:00:45;;;;;;;11.40;5.00;;;23.00;99.90;;;;;;5047230;28;20045;-58
2023/06/10 08:03:11;;;;;;;7.05;3.88;;;23.00;99.90;;;;;;5074330;28;20036;-58
2023/06/10 08:05:36;;;;;;;8.25;4.50;;;23.20;99.90;;;;;;5056073;28;20083;-58
2023/06/10 08:08:02;;;;;;;6.88;3.78;;;23.40;99.90;;;;;;5074656;28;20040;-58
2023/06/10 08:10:27;;;;;;;12.02;4.93;;;23.30;99.90;;;;;;5074345;28;20036;-58
2023/06/10 08:12:53;;;;;;;8.13;3.97;;;23.30;99.90;;;;;;5074374;28;20032;-58
2023/06/10 08:15:19;;;;;;;8.98;3.88;;;23.40;99.90;;;;;;5074431;28;20501;-57
2023/06/10 08:17:44;;;;;;;7.65;4.22;;;23.60;99.90;;;;;;5074243;28;20044;-58
2023/06/10 08:20:10;;;;;;;11.23;4.05;;;23.60;99.90;;;;;;5073950;28;20117;-58
2023/06/10 08:22:36;;;;;;;6.25;3.50;;;23.60;99.90;;;;;;5070646;28;20048;-58
2023/06/10 08:25:01;;;;;;;7.05;3.97;;;23.80;99.90;;;;;;5045709;28;20044;-58
2023/06/10 08:27:27;;;;;;;8.65;4.25;;;23.70;99.90;;;;;;5074023;28;20024;-58
2023/06/10 08:29:52;;;;;;;6.25;3.65;;;23.70;99.90;;;;;;5038905;28;20056;-58
2023/06/10 08:32:18;;;;;;;9.27;4.10;;;23.80;99.90;;;;;;5034510;28;20044;-58
2023/06/10 08:34:44;;;;;;;5.93;3.53;;;24.00;99.90;;;;;;5033725;28;20560;-58
2023/06/10 08:37:09;;;;;;;12.73;4.22;;;24.20;99.90;;;;;;5033873;28;20040;-58
2023/06/10 08:39:35;;;;;;;8.85;3.92;;;24.40;99.90;;;;;;5032666;28;20084;-58
2023/06/10 08:42:07;;;;;;;9.23;4.05;;;24.60;99.90;;;;;;5034035;28;20472;-58
2023/06/10 08:44:38;;;;;;;8.60;3.72;;;24.70;99.90;;;;;;5033853;28;20053;-58
2023/06/10 08:47:09;;;;;;;6.25;3.72;;;25.20;99.90;;;;;;5033823;28;20407;-59
2023/06/10 08:49:41;;;;;;;6.70;3.38;;;25.00;99.90;;;;;;5033893;28;20076;-58
2023/06/10 08:52:08;;;;;;;7.82;3.45;;;25.20;99.90;;;;;;5033597;28;20033;-59
2023/06/10 08:54:37;;;;;;;8.38;3.80;;;25.50;99.90;;;;;;5025125;28;20046;-58
2023/06/10 08:57:06;;;;;;;14.38;4.20;;;25.50;99.90;;;;;;5012383;28;20042;-59
2023/06/10 08:59:32;;;;;;;7.63;3.90;;;26.10;99.90;;;;;;5012179;28;20046;-59
2023/06/10 09:01:59;;;;;;;5.45;3.28;;;26.50;99.90;;;;;;5013864;28;20037;-58
2023/06/10 09:04:25;;;;;;;5.22;3.33;;;26.50;99.90;;;;;;5013764;28;20403;-59
2023/06/10 09:06:52;;;;;;;10.18;3.53;;;26.50;99.90;;;;;;5013495;28;20073;-59
2023/06/10 09:09:19;;;;;;;9.48;3.70;;;26.40;99.90;;;;;;5012137;28;20088;-59
2023/06/10 09:11:45;;;;;;;8.05;3.90;;;26.50;99.90;;;;;;5011569;28;20094;-59
2023/06/10 09:14:12;;;;;;;11.20;3.80;;;26.70;99.90;;;;;;5013683;28;20387;-59
2023/06/10 09:16:38;;;;;;;7.22;3.50;;;26.70;99.90;;;;;;5013305;28;20053;-59
2023/06/10 09:19:07;;;;;;;15.73;3.58;;;26.40;99.90;;;;;;5013149;28;20489;-59
2023/06/10 09:21:35;;;;;;;9.77;4.00;;;26.40;99.90;;;;;;5013155;28;20050;-59
2023/06/10 09:24:01;;;;;;;7.68;3.17;;;26.60;99.90;;;;;;5012695;28;20041;-60
2023/06/10 09:26:30;;;;;;;9.73;4.25;;;26.60;99.90;;;;;;5013515;28;20089;-58
2023/06/10 09:29:08;;;;;;;8.05;3.40;;;26.60;99.90;;;;;;5023788;28;20056;-58
2023/06/10 09:31:43;;;;;;;9.40;4.53;;;27.00;99.90;;;;;;5069028;28;20044;-60
2023/06/10 09:34:11;;;;;;;8.63;2.95;;;26.70;99.90;;;;;;5072767;28;20098;-59
2023/06/10 09:36:38;;;;;;;5.88;3.05;;;26.70;99.90;;;;;;5070723;28;20484;-58
2023/06/10 09:39:05;;;;;;;6.15;2.95;;;27.20;99.90;;;;;;5060540;28;20482;-59
2023/06/10 09:41:40;;;;;;;7.97;3.70;;;27.40;99.90;;;;;;5058516;28;20421;-59
2023/06/10 09:44:16;;;;;;;8.35;3.55;;;27.40;99.80;;;;;;5072225;28;20154;-59
2023/06/10 09:46:44;;;;;;;7.72;3.40;;;27.70;99.90;;;;;;5072428;28;20413;-60
2023/06/10 09:49:10;;;;;;;11.27;3.45;;;27.90;99.90;;;;;;5065291;28;20037;-60
2023/06/10 09:51:36;;;;;;;8.57;3.25;;;28.10;99.90;;;;;;5065258;28;20178;-66
2023/06/10 09:54:05;;;;;;;9.88;3.28;;;28.60;99.60;;;;;;5053635;28;20477;-66
2023/06/10 09:56:37;;;;;;;4.75;3.22;;;29.30;99.30;;;;;;5053655;28;20479;-65
2023/06/10 09:59:06;;;;;;;5.82;3.60;;;29.50;98.40;;;;;;5033497;28;20053;-65
2023/06/10 10:01:33;;;;;;;4.32;2.95;;;29.80;98.50;;;;;;5059152;28;20036;-65
2023/06/10 10:03:59;;;;;;;10.90;3.67;;;30.40;98.50;;;;;;5072259;28;20044;-65
2023/06/10 10:06:25;;;;;;;6.88;3.20;;;30.60;97.80;;;;;;5071801;28;20040;-64
2023/06/10 10:08:52;;;;;;;5.22;3.13;;;30.20;97.60;;;;;;5071455;28;20043;-65
2023/06/10 10:11:19;;;;;;;6.22;2.97;;;30.70;97.10;;;;;;5071926;28;20073;-65
2023/06/10 10:13:50;;;;;;;7.93;2.83;;;31.10;96.70;;;;;;5071549;28;20059;-65
2023/06/10 10:16:33;;;;;;;6.38;3.25;;;31.10;95.80;;;;;;5072000;28;20040;-66
2023/06/10 10:19:32;;;;;;;8.27;3.40;;;31.60;95.30;;;;;;5071440;28;20417;-65
2023/06/10 10:22:10;;;;;;;6.55;2.80;;;31.70;95.40;;;;;;4990132;28;20559;-65
2023/06/10 10:24:48;;;;;;;6.40;2.95;;;32.30;95.40;;;;;;4990034;28;20057;-65
2023/06/10 10:27:18;;;;;;;7.67;3.20;;;32.80;95.70;;;;;;4990042;28;20061;-66
2023/06/10 10:29:47;;;;;;;9.40;3.58;;;32.30;94.70;;;;;;4967472;28;20298;-65
2023/06/10 10:32:16;;;;;;;6.50;3.42;;;32.60;95.00;;;;;;4970636;28;20105;-65
2023/06/10 10:35:07;;;;;;;5.82;3.25;;;32.70;95.50;;;;;;4988676;28;20481;-64
2023/06/10 10:37:33;;;;;;;5.45;3.30;;;32.60;94.60;;;;;;4989797;28;20046;-66
2023/06/10 10:40:01;;;;;;;7.95;3.25;;;32.90;95.00;;;;;;4973426;28;20532;-66
2023/06/10 10:42:28;;;;;;;6.60;2.90;;;33.30;94.00;;;;;;4989749;28;20066;-65
2023/06/10 10:44:54;;;;;;;6.10;2.90;;;33.40;95.00;;;;;;4989725;28;20030;-65
2023/06/10 10:47:27;;;;;;;7.68;3.35;;;33.50;94.20;;;;;;4989835;28;20052;-66
2023/06/10 10:49:53;;;;;;;7.68;3.22;;;33.80;94.40;;;;;;4973535;28;20069;-66
2023/06/10 10:52:19;;;;;;;5.60;2.85;;;33.80;93.80;;;;;;4990038;28;20092;-66
2023/06/10 10:54:48;;;;;;;8.68;3.35;;;33.20;93.30;;;;;;4987231;28;20046;-66
2023/06/10 10:57:19;;;;;;;4.53;3.05;;;33.30;93.30;;;;;;4954564;28;20123;-65
2023/06/10 10:59:48;;;;;;;8.73;4.00;;;33.10;92.10;;;;;;5036699;28;20056;-66
2023/06/10 11:02:35;;;;;;;7.18;3.38;;;33.40;93.00;;;;;;5051080;28;20517;-66
2023/06/10 11:05:01;;;;;;;4.47;2.70;;;33.80;92.90;;;;;;5050918;28;20501;-66
2023/06/10 11:07:30;;;;;;;6.00;2.90;;;33.40;91.40;;;;;;5051297;28;20116;-66
2023/06/10 11:10:01;;;;;;;8.27;3.00;;;33.80;91.60;;;;;;5051073;28;20041;-66
2023/06/10 11:12:45;;;;;;;6.50;3.03;;;34.00;91.30;;;;;;5054677;28;20037;-66
2023/06/10 11:15:19;;;;;;;7.10;3.15;;;33.50;91.90;;;;;;5054805;28;20033;-66
2023/06/10 11:18:09;;;;;;;7.63;3.45;;;33.70;92.10;;;;;;5054857;28;20048;-66
2023/06/10 11:20:47;;;;;;;6.80;3.95;;;33.70;91.50;;;;;;5032738;28;20049;-65
2023/06/10 11:23:27;;;;;;;6.97;3.45;;;33.80;91.90;;;;;;5054819;28;20052;-65
2023/06/10 11:26:16;;;;;;;3.92;3.20;;;33.70;92.60;;;;;;5042013;28;20479;-66
2023/06/10 11:29:03;;;;;;;7.43;3.47;;;33.80;91.20;;;;;;5054609;28;20068;-66
2023/06/10 11:31:52;;;;;;;5.75;3.20;;;33.60;91.50;;;;;;4973869;28;20493;-67
2023/06/10 11:34:24;;;;;;;6.28;3.53;;;34.00;92.60;;;;;;4919497;29;20059;-66
2023/06/10 11:36:51;;;;;;;6.97;3.38;;;34.00;92.10;;;;;;4934987;29;20090;-66
2023/06/10 11:39:18;;;;;;;5.30;3.22;;;33.20;91.60;;;;;;4919084;29;20060;-66
2023/06/10 11:41:45;;;;;;;5.68;2.97;;;33.60;91.40;;;;;;4934894;29;20052;-66
2023/06/10 11:44:13;;;;;;;7.53;3.33;;;33.00;90.70;;;;;;4934919;29;20039;-66
2023/06/10 11:46:39;;;;;;;6.22;2.95;;;33.10;91.30;;;;;;4934937;29;20131;-66
2023/06/10 11:49:06;;;;;;;8.07;3.50;;;33.30;91.80;;;;;;4934751;29;20553;-65
2023/06/10 11:51:40;;;;;;;6.28;3.25;;;33.60;91.50;;;;;;4934972;29;20047;-65
2023/06/10 11:54:08;;;;;;;6.28;2.72;;;33.50;90.50;;;;;;4937880;29;20047;-66
2023/06/10 11:56:34;;;;;;;7.57;2.92;;;32.90;90.90;;;;;;4936875;29;20110;-65
2023/06/10 11:59:07;;;;;;;3.90;2.88;;;32.90;90.70;;;;;;4934705;29;20102;-66
2023/06/10 12:01:37;;;;;;;5.95;2.70;;;33.60;90.50;;;;;;4941295;29;20521;-64
2023/06/10 12:04:08;;;;;;;6.20;3.08;;;33.50;88.10;;;;;;4954002;29;20506;-66
2023/06/10 12:06:47;;;;;;;4.97;2.85;;;33.30;89.10;;;;;;4953856;29;20055;-65
2023/06/10 12:09:19;;;;;;;5.53;2.67;;;32.60;90.20;;;;;;4967515;28;20058;-65
2023/06/10 12:11:48;;;;;;;7.40;2.83;;;33.30;90.50;;;;;;5048829;28;20533;-66
2023/06/10 12:14:13;;;;;;;5.85;3.13;;;33.40;90.20;;;;;;5074079;28;20121;-65
2023/06/10 12:16:39;;;;;;;5.07;3.08;;;33.20;90.50;;;;;;5074052;28;20170;-66
2023/06/10 12:19:06;;;;;;;6.88;2.92;;;33.50;90.30;;;;;;5073989;28;20553;-65
2023/06/10 12:21:34;;;;;;;6.95;2.83;;;33.20;89.40;;;;;;5073869;28;20447;-65
2023/06/10 12:24:10;;;;;;;7.63;3.17;;;33.30;90.50;;;;;;5055299;28;20393;-66
2023/06/10 12:26:40;;;;;;;3.38;2.92;;;33.60;91.00;;;;;;5073421;28;20072;-65
2023/06/10 12:29:14;;;;;;;5.75;3.15;;;33.70;91.30;;;;;;5073536;28;20071;-65
2023/06/10 12:31:54;;;;;;;13.57;3.13;;;33.30;91.20;;;;;;5073269;28;20560;-65
2023/06/10 12:34:20;;;;;;;5.85;2.97;;;33.40;91.10;;;;;;5073744;28;20040;-66
2023/06/10 12:36:49;;;;;;;5.35;3.10;;;32.90;90.90;;;;;;5073125;28;20044;-66
2023/06/10 12:39:15;;;;;;;6.63;2.90;;;32.60;91.40;;;;;;5088942;28;20094;-65
2023/06/10 12:41:46;;;;;;;7.47;3.00;;;32.80;91.50;;;;;;5073278;28;20432;-65
2023/06/10 12:44:12;;;;;;;5.25;3.10;;;32.70;91.60;;;;;;5088945;28;20072;-65
2023/06/10 12:46:38;;;;;;;9.40;2.50;;;33.20;91.60;;;;;;5073147;28;20426;-65